Terminal Aerodrome Forecast
Issued by NWS Twin Cities, MN

Home | Current Version | Previous Version | Text Only | Print | Product List | Glossary On
Versions: 1 2 3 4 5 6 7 8 9 10 11 12 13 14 15 16 17 18 19 20
000
FTUS43 KMPX 190526
TAFSTC
TAF
KSTC 190526Z 1906/2006 15005KT 1SM BR FEW002
     FM190700 16005KT 1/4SM FG VV002
     FM191300 16006KT 3SM BR FEW003
     FM192100 17007KT 5SM BR OVC010=

USA.gov is the U.S. government's official web portal to all federal, state and local government web resources and services.